Historyczne dane pomiarowe

Dodano dane terminowe – wersja testowa.

Dane z okresu 1951-2019

Wersja bazy: 1.34 [2019-03-16, lista zmian], aktualizacja planowana na 2019-04-15

Dane meteo z obszaru Polski uzyskane na podstawie danych udostępnionych przez Instytut Meteorologii i Gospodarki Wodnej – Państwowy Instytut Badawczy.

 

Wybierz Datę:    

       

TemperaturaWilgotnośćWiatrCiśnienieOpadyŚniegCzas trwania zjawisk
 Stacja t tx tn tng RH VA  wxwx mslp ppp RRR   cm mm wxwxwxwxwxwxwx
2019-07-25 20.9 28.4 13.5--- 2.7----- 0.0------------
2019-07-24 20.8 24.8 18.1--- 6.7----- 1.5------------
2019-07-23 18.9 23.2 16.1--- 7.7----- 0.3------------
2019-07-22 20.3 26.3 13.7--- 5.3----- 2.0------------
2019-07-21 20.0 28.6 13.0--- 6.0----- 0.2------------
2019-07-20 21.7 27.3 16.4--- 6.3----- 1.5------------
2019-07-19 17.1 28.1 6.7--- 5.0----- 1.1------------
2019-07-18 16.0 25.0 5.3--- 3.7----- 0.0------------
2019-07-17 16.7 21.8 9.8--- 6.0----- 0.0------------
2019-07-16 14.7 20.3 5.7--- 5.0----- 0.0------------
2019-07-15 16.0 24.3 5.7--- 1.7----- 0.0------------
2019-07-14 17.3 23.4 10.7--- 4.3----- 0.1------------
2019-07-13 16.0 20.8 12.9--- 6.7----- 7.3------------
2019-07-12 17.1 25.5 6.8--- 6.0----- 2.6------------
2019-07-11 15.2 20.8 9.0--- 6.3----- 0.4------------
2019-07-10 14.7 18.0 11.9--- 5.7----- 12.5------------
2019-07-09 15.0 21.3 6.7--- 4.7----- 0.0------------
2019-07-08 14.1 17.7 8.1--- 6.0----- 0.0------------
2019-07-07 17.8 23.6 12.3--- 5.0----- 0.4------------
2019-07-06 19.9 26.0 13.2--- 6.3----- 0.0------------
2019-07-05 15.7 22.2 6.2--- 6.7----- 0.0------------
2019-07-04 16.1 23.6 4.4--- 4.0----- 0.0------------
2019-07-03 16.8 23.3 7.6--- 2.3----- 0.0------------
2019-07-02 22.4 29.3 17.6--- 5.0----- 0.0------------
2019-07-01 27.1 36.8 22.1--- 4.3----- 2.1------------
2019-06-30 24.8 34.8 9.9--- 1.3----- 0.0------------
2019-06-29 20.7 28.8 9.6--- 6.0----- 0.0------------
2019-06-28 17.7 23.8 9.6--- 4.7----- 0.0------------
2019-06-27 25.7 32.6 22.3--- 1.7----- 0.0------------
2019-06-26 27.5 35.3 16.7--- 0.7----- 0.0------------
2019-06-25 23.9 32.2 12.5--- 2.7----- 0.0------------
2019-06-24 21.2 28.4 11.8--- 3.0----- 0.0------------
2019-06-23 21.0 26.5 14.0--- 5.0----- 0.0------------
2019-06-22 20.5 26.3 13.8--- 5.3----- 0.0------------
2019-06-21 21.4 29.0 15.1--- 6.0----- 2.4------------
2019-06-20 21.4 28.8 15.0--- 6.0----- 0.3------------
2019-06-19 21.6 30.0 12.7--- 6.3----- 7.8------------
2019-06-18 19.5 26.8 9.6--- 5.0----- 0.0------------
2019-06-17 18.8 25.4 12.3--- 5.0----- 0.0------------
2019-06-16 22.2 29.3 16.6--- 4.3----- 2.0------------
2019-06-15 25.6 34.3 15.6--- 2.0----- 0.0------------
2019-06-14 24.6 30.2 17.6--- 3.7----- 0.0------------
2019-06-13 24.9 34.0 15.7--- 5.3----- 0.0------------
2019-06-12 24.7 32.8 15.9--- 2.3----- 0.0------------
2019-06-11 25.0 32.5 16.3--- 0.3----- 0.0------------
2019-06-10 23.2 31.0 14.1--- 0.7----- 0.0------------
2019-06-09 19.2 27.0 8.1--- 1.3----- 0.0------------
2019-06-08 20.3 28.4 12.7--- 5.7----- 1.6------------
2019-06-07 20.7 26.5 12.3--- 5.3----- 0.0------------
2019-06-06 20.7 27.2 11.5--- 4.3----- 0.0------------
2019-06-05 21.4 27.8 12.9--- 0.7----- 0.0------------
2019-06-04 20.9 28.6 9.7--- 2.7----- 0.0------------
2019-06-03 19.1 27.2 8.8--- 2.7----- 0.0------------
2019-06-02 18.8 28.0 9.0--- 4.0----- 0.0------------
2019-06-01 18.5 24.7 8.6--- 3.7----- 0.0------------
2019-05-31 16.2 23.0 9.2--- 4.7----- 0.0------------
2019-05-30 11.4 18.2 3.5--- 5.3----- 0.0------------
2019-05-29 13.0 16.2 10.0--- 6.7----- 0.2------------
2019-05-28 17.6 24.3 12.7--- 6.0----- 2.7------------
2019-05-27 17.3 25.2 7.7--- 4.7----- 3.5------------
92.8 ms

 

Źródłem pochodzenia danych jest Instytut Meteorologii i Gospodarki Wodnej – Państwowy Instytut Badawczy. Dane Instytutu Meteorologii i Gospodarki Wodnej – Państwowego Instytutu Badawczego zostały przetworzone.

Dane źródłowe można odnaleźć na stronie https://dane.imgw.pl